Plymouth, ME (04969)

3:31 AM EDT on July 27, 2016 (GMT -0400)
APRSWXNET | | Change Station

Elev 316 ft 44.80 °N, 69.26 °W | Updated 23 minutes ago

Clear
Clear
65 °F
Feels Like 65 °F
N
2
Wind Variable Wind from WNW
Gusts 4.0 mph

Today
High -- | Low -- °F
--% Chance of Precip.
Yesterday
High -- | Low -- °F
Precip. -- in
Pressure 29.84 in
Visibility 10.0 miles
Clouds Clear
Dew Point 63 °F
Humidity 93%
Rainfall in
Snow Depth Not available.
5:17 AM 8:08 PM
Last Quarter, 46% visible
METAR KBGR 270653Z 00000KT 10SM CLR 21/17 A2985 RMK AO2 SLP104 T02110167
Pressure 29.84 in
Visibility 10.0 miles
Clouds Clear
Dew Point 63 °F
Humidity 93%
Rainfall in
Snow Depth Not available.
5:17 AM 8:08 PM
Last Quarter, 46% visible
METAR KBGR 270653Z 00000KT 10SM CLR 21/17 A2985 RMK AO2 SLP104 T02110167

10-Day Weather Forecast

Almanac

Astronomy

Jul. 27, 2016 Rise Set
Actual Time
Civil Twilight
Nautical Twilight
Astronomical Twilight
Moon
Length of Visible Light
Length of Day
Tomorrow will be .
, % of the Moon is Illuminated

Today's Extremes

State Highs State Lows

Community

WunderPhotos

Upload Photos

1,927,818 photos uploaded!

WunderBlog® & News

Nearby

Air Quality

  Air Quality AQ Index Pollutant
Not available.

Snow Depth

Station Depth Elevation

Earthquake Activity

City Distance Mag. Time & Date
Minimum magnitude displayed is 2.5.

Coastal Water Temperatures

Place Temperature

Stations

Nearby Weather Stations

Station Location Temp. Windchill Dew Point Humidity Wind Precip. Elev Updated Type
                   

Watches & Warnings

There are currently no watches in effect.